Time;durP1;ratioP1;P1;durP2;ratioP2;P2;SDS_P1;SDS_P2;PMS_P1;PMS_P2;Temp;Humidity;BMP_temperature;BMP_pressure;BME280_temperature;BME280_humidity;BME280_pressure;Samples;Min_cycle;Max_cycle;Signal;HPM_P1;HPM_P2
2022/05/19 00:01:29;;;;;;;;;;;25.50;38.90;;;;;;8298856;28;20397;-48
2022/05/19 00:05:30;;;;;;;;;;;25.50;38.80;;;;;;8298752;28;19918;-47
2022/05/19 00:09:30;;;;;;;;;;;25.50;38.80;;;;;;8297899;28;19914;-51
2022/05/19 00:13:31;;;;;;;;;;;25.50;38.90;;;;;;8298486;28;19914;-50
2022/05/19 00:17:31;;;;;;;;;;;25.50;38.90;;;;;;8298063;28;19948;-51
2022/05/19 00:21:32;;;;;;;;;;;25.50;38.90;;;;;;8297796;28;20031;-51
2022/05/19 00:25:33;;;;;;;;;;;25.40;38.80;;;;;;8298295;28;19921;-51
2022/05/19 00:29:34;;;;;;;;;;;25.40;38.80;;;;;;8298151;28;20000;-49
2022/05/19 00:33:34;;;;;;;;;;;25.50;38.90;;;;;;8297404;28;19917;-52
2022/05/19 00:37:35;;;;;;;;;;;25.40;38.90;;;;;;8297670;28;19932;-53
2022/05/19 00:41:39;;;;;;;;;;;25.40;38.90;;;;;;8297679;28;20350;-48
2022/05/19 00:45:45;;;;;;;;;;;25.40;38.90;;;;;;8297245;28;20294;-48
2022/05/19 00:49:46;;;;;;;;;;;25.40;38.90;;;;;;8297595;28;19913;-49
2022/05/19 00:53:49;;;;;;;;;;;25.40;38.90;;;;;;8297662;28;19921;-47
2022/05/19 00:57:53;;;;;;;;;;;25.40;38.90;;;;;;8296956;28;19952;-48
2022/05/19 01:01:55;;;;;;;;;;;25.40;38.90;;;;;;8296589;28;19921;-52
2022/05/19 01:05:59;;;;;;;;;;;25.40;38.90;;;;;;8300271;28;19929;-47
2022/05/19 01:10:00;;;;;;;;;;;25.40;38.90;;;;;;8303733;28;20390;-47
2022/05/19 01:14:01;;;;;;;;;;;25.40;38.90;;;;;;8304048;28;19921;-50
2022/05/19 01:18:02;;;;;;;;;;;25.30;38.90;;;;;;8303084;28;20322;-50
2022/05/19 01:22:41;;;;;;;;;;;25.30;38.90;;;;;;8303835;28;19928;-51
2022/05/19 01:26:41;;;;;;;;;;;25.30;38.90;;;;;;8221036;28;20005;-47
2022/05/19 01:30:42;;;;;;;;;;;25.30;38.90;;;;;;8208826;28;20422;-51
2022/05/19 01:34:42;;;;;;;;;;;25.30;38.90;;;;;;8286299;28;20381;-51
2022/05/19 01:38:43;;;;;;;;;;;25.30;38.90;;;;;;8302913;28;19930;-49
2022/05/19 01:42:49;;;;;;;;;;;25.30;38.90;;;;;;8302433;28;20400;-49
2022/05/19 01:46:53;;;;;;;;;;;25.20;38.90;;;;;;8302779;28;19918;-48
2022/05/19 01:51:00;;;;;;;;;;;25.30;39.00;;;;;;8302263;28;19917;-50
2022/05/19 01:55:09;;;;;;;;;;;25.20;38.90;;;;;;8302985;28;20381;-48
2022/05/19 01:59:14;;;;;;;;;;;25.20;38.90;;;;;;8302459;28;19926;-48
2022/05/19 02:03:21;;;;;;;;;;;25.20;38.90;;;;;;8301725;28;19956;-52
2022/05/19 02:07:22;;;;;;;;;;;25.20;39.00;;;;;;8301573;28;19924;-49
2022/05/19 02:11:29;;;;;;;;;;;25.20;39.00;;;;;;8301933;28;20359;-51
2022/05/19 02:15:34;;;;;;;;;;;25.20;39.00;;;;;;8301183;28;19924;-47
2022/05/19 02:19:38;;;;;;;;;;;25.20;39.00;;;;;;8301761;28;19934;-51
2022/05/19 02:23:40;;;;;;;;;;;25.20;39.00;;;;;;8301634;28;20338;-46
2022/05/19 02:27:52;;;;;;;;;;;25.20;39.00;;;;;;8300973;28;19925;-48
2022/05/19 02:31:53;;;;;;;;;;;25.20;39.00;;;;;;8301471;28;19940;-50
2022/05/19 02:35:53;;;;;;;;;;;25.10;39.00;;;;;;8300920;28;19947;-50
2022/05/19 02:39:53;;;;;;;;;;;25.10;39.00;;;;;;8301396;28;19914;-51
2022/05/19 02:43:54;;;;;;;;;;;25.10;39.00;;;;;;8300825;28;20453;-51
2022/05/19 02:47:55;;;;;;;;;;;25.10;39.10;;;;;;8300353;28;19964;-48
2022/05/19 02:51:55;;;;;;;;;;;25.10;39.00;;;;;;8300577;28;19924;-50
2022/05/19 02:55:55;;;;;;;;;;;25.10;39.00;;;;;;8300659;28;19921;-48
2022/05/19 02:59:56;;;;;;;;;;;25.10;39.10;;;;;;8300276;28;19917;-48
2022/05/19 03:03:56;;;;;;;;;;;25.10;39.10;;;;;;8300065;28;19925;-47
2022/05/19 03:07:57;;;;;;;;;;;25.10;39.10;;;;;;8300589;28;19937;-48
2022/05/19 03:11:57;;;;;;;;;;;25.00;39.00;;;;;;8299641;28;19964;-48
2022/05/19 03:15:58;;;;;;;;;;;25.00;39.10;;;;;;8299902;28;19975;-48
2022/05/19 03:19:58;;;;;;;;;;;25.00;39.10;;;;;;8300001;28;20157;-47
2022/05/19 03:23:58;;;;;;;;;;;25.00;39.10;;;;;;8299353;28;20375;-48
2022/05/19 03:27:59;;;;;;;;;;;25.00;39.10;;;;;;8299540;28;19960;-48
2022/05/19 03:32:00;;;;;;;;;;;25.00;39.10;;;;;;8300176;28;19936;-49
2022/05/19 03:36:01;;;;;;;;;;;25.00;39.20;;;;;;8299700;28;19925;-51
2022/05/19 03:40:02;;;;;;;;;;;25.00;39.20;;;;;;8300015;28;19925;-47
2022/05/19 03:44:03;;;;;;;;;;;25.00;39.20;;;;;;8300016;28;19921;-49
2022/05/19 03:48:03;;;;;;;;;;;25.00;39.20;;;;;;8299363;28;19918;-50
2022/05/19 03:52:04;;;;;;;;;;;24.90;39.10;;;;;;8299675;28;19917;-48
2022/05/19 03:56:05;;;;;;;;;;;24.90;39.10;;;;;;8299659;28;20008;-48
2022/05/19 04:00:07;;;;;;;;;;;25.00;39.20;;;;;;8299215;28;19917;-47
2022/05/19 04:04:07;;;;;;;;;;;24.90;39.20;;;;;;8299623;28;20353;-46
2022/05/19 04:08:08;;;;;;;;;;;24.90;39.20;;;;;;8299685;28;19913;-48
2022/05/19 04:12:09;;;;;;;;;;;24.90;39.20;;;;;;8274214;28;20302;-51
2022/05/19 04:16:10;;;;;;;;;;;24.90;39.20;;;;;;8298219;28;19922;-51
2022/05/19 04:20:10;;;;;;;;;;;24.90;39.20;;;;;;8298331;28;20040;-49
2022/05/19 04:24:11;;;;;;;;;;;24.90;39.20;;;;;;8298224;28;19917;-50
2022/05/19 04:28:12;;;;;;;;;;;24.90;39.20;;;;;;8298225;28;19918;-51
2022/05/19 04:32:12;;;;;;;;;;;24.90;39.20;;;;;;8297886;28;19920;-51
2022/05/19 04:36:13;;;;;;;;;;;24.80;39.20;;;;;;8297480;28;19925;-52
2022/05/19 04:40:14;;;;;;;;;;;24.90;39.30;;;;;;8297969;28;19953;-48
2022/05/19 04:44:17;;;;;;;;;;;24.80;39.20;;;;;;8297548;28;19917;-52
2022/05/19 04:48:17;;;;;;;;;;;24.80;39.10;;;;;;8297133;28;19922;-47
2022/05/19 04:52:20;;;;;;;;;;;24.80;39.20;;;;;;8297318;28;19920;-47
2022/05/19 04:56:20;;;;;;;;;;;24.80;39.20;;;;;;8297617;28;19964;-52
2022/05/19 05:00:21;;;;;;;;;;;24.80;39.20;;;;;;8297023;28;20387;-51
2022/05/19 05:04:23;;;;;;;;;;;24.80;39.20;;;;;;8297231;28;19921;-49
2022/05/19 05:08:23;;;;;;;;;;;24.80;39.20;;;;;;8297451;28;19914;-50
2022/05/19 05:12:24;;;;;;;;;;;24.80;39.20;;;;;;8296858;28;20397;-52
2022/05/19 05:16:25;;;;;;;;;;;24.80;39.20;;;;;;8297487;28;20016;-50
2022/05/19 05:20:25;;;;;;;;;;;24.80;39.20;;;;;;8297264;28;19917;-51
2022/05/19 05:24:26;;;;;;;;;;;24.80;39.20;;;;;;8296830;28;20322;-48
2022/05/19 05:28:26;;;;;;;;;;;24.80;39.20;;;;;;8297209;28;20004;-48
2022/05/19 05:32:27;;;;;;;;;;;24.80;39.20;;;;;;8297074;28;19925;-48
2022/05/19 05:36:28;;;;;;;;;;;24.80;39.20;;;;;;8296807;28;19972;-48
2022/05/19 05:40:28;;;;;;;;;;;24.80;39.10;;;;;;8297106;28;19917;-47
2022/05/19 05:44:29;;;;;;;;;;;24.80;39.10;;;;;;8296912;28;19971;-46
2022/05/19 05:48:29;;;;;;;;;;;24.80;39.10;;;;;;8296449;28;19945;-47
2022/05/19 05:52:30;;;;;;;;;;;24.80;39.20;;;;;;8300445;28;19913;-46
2022/05/19 05:56:30;;;;;;;;;;;24.80;39.20;;;;;;8302689;28;19925;-50
2022/05/19 06:00:32;;;;;;;;;;;24.80;39.10;;;;;;8301928;28;19918;-50
2022/05/19 06:04:32;;;;;;;;;;;24.80;39.10;;;;;;8302595;28;19922;-53
2022/05/19 06:08:33;;;;;;;;;;;24.80;39.10;;;;;;8302260;28;20374;-51
2022/05/19 06:12:35;;;;;;;;;;;24.80;39.10;;;;;;8300829;28;20147;-49
2022/05/19 06:16:36;;;;;;;;;;;24.80;39.10;;;;;;8301918;28;20390;-46
2022/05/19 06:20:37;;;;;;;;;;;24.80;39.20;;;;;;8301816;28;20433;-47
2022/05/19 06:24:38;;;;;;;;;;;24.80;39.20;;;;;;8301145;28;19945;-48
2022/05/19 06:28:38;;;;;;;;;;;24.80;39.20;;;;;;8301422;28;20012;-50
2022/05/19 06:32:42;;;;;;;;;;;24.80;39.20;;;;;;8301460;28;19917;-47
2022/05/19 06:36:42;;;;;;;;;;;24.80;39.20;;;;;;8301008;28;19959;-50
2022/05/19 06:40:43;;;;;;;;;;;24.80;39.10;;;;;;8301147;28;20382;-50
2022/05/19 06:44:44;;;;;;;;;;;24.80;39.10;;;;;;8300942;28;20004;-49
2022/05/19 06:48:44;;;;;;;;;;;24.80;39.10;;;;;;8300458;28;19932;-50
2022/05/19 06:52:51;;;;;;;;;;;24.80;39.10;;;;;;8300855;28;19925;-48
2022/05/19 06:56:51;;;;;;;;;;;24.80;39.10;;;;;;8300490;28;20550;-50
2022/05/19 07:00:53;;;;;;;;;;;24.80;39.10;;;;;;8300843;28;19924;-48
2022/05/19 07:04:53;;;;;;;;;;;24.80;39.10;;;;;;8299697;28;20359;-50
2022/05/19 07:08:53;;;;;;;;;;;24.80;39.10;;;;;;8299972;28;19921;-51
2022/05/19 07:12:54;;;;;;;;;;;24.80;39.00;;;;;;8299639;28;19949;-52
2022/05/19 07:16:55;;;;;;;;;;;24.80;39.10;;;;;;8300471;28;20379;-49
2022/05/19 07:20:55;;;;;;;;;;;24.80;39.10;;;;;;8299673;28;19923;-52
2022/05/19 07:24:59;;;;;;;;;;;24.80;39.10;;;;;;8299713;28;19921;-48
2022/05/19 07:28:59;;;;;;;;;;;24.80;39.10;;;;;;8299790;28;19992;-52
2022/05/19 07:33:00;;;;;;;;;;;24.80;39.10;;;;;;8299156;28;20358;-49
2022/05/19 07:37:00;;;;;;;;;;;24.80;39.10;;;;;;8299991;28;19960;-51
2022/05/19 07:41:03;;;;;;;;;;;24.80;39.10;;;;;;8299650;28;19975;-49
2022/05/19 07:45:05;;;;;;;;;;;24.80;39.10;;;;;;8299021;28;19914;-50
2022/05/19 07:49:07;;;;;;;;;;;24.80;39.10;;;;;;8299010;28;19918;-47
2022/05/19 07:53:08;;;;;;;;;;;24.80;39.10;;;;;;8299031;28;20382;-49
2022/05/19 07:57:08;;;;;;;;;;;24.80;39.10;;;;;;8298676;28;19925;-47
2022/05/19 08:01:08;;;;;;;;;;;24.90;39.20;;;;;;8298719;28;19921;-48
2022/05/19 08:05:09;;;;;;;;;;;24.90;39.10;;;;;;8298614;28;20000;-48
2022/05/19 08:17:48;;;;;;;;;;;24.90;39.20;;;;;;8298246;28;19971;-47
2022/05/19 08:21:48;;;;;;;;;;;24.90;39.20;;;;;;8297932;28;20259;-50
2022/05/19 08:25:49;;;;;;;;;;;24.90;39.20;;;;;;8298261;28;19917;-47
2022/05/19 08:29:50;;;;;;;;;;;25.00;39.80;;;;;;8297593;28;19917;-48
2022/05/19 08:33:52;;;;;;;;;;;25.00;39.30;;;;;;8297857;28;20000;-50
2022/05/19 08:37:53;;;;;;;;;;;25.00;39.20;;;;;;8297884;28;19922;-51
2022/05/19 08:41:55;;;;;;;;;;;25.00;39.30;;;;;;8297635;28;20390;-51
2022/05/19 08:45:58;;;;;;;;;;;25.00;39.30;;;;;;8297992;28;19922;-47
2022/05/19 08:50:03;;;;;;;;;;;25.00;39.30;;;;;;8297766;28;19929;-47
2022/05/19 08:54:05;;;;;;;;;;;25.00;39.20;;;;;;8297169;28;20000;-49
2022/05/19 08:58:21;;;;;;;;;;;25.10;39.30;;;;;;8297259;28;20012;-46
2022/05/19 09:02:25;;;;;;;;;;;25.00;39.20;;;;;;8297866;28;19921;-49
2022/05/19 09:06:26;;;;;;;;;;;25.10;39.30;;;;;;8296930;28;20004;-48
2022/05/19 09:10:26;;;;;;;;;;;25.10;39.30;;;;;;8297281;28;19985;-48
2022/05/19 09:14:28;;;;;;;;;;;25.10;39.30;;;;;;8297299;28;20256;-48
2022/05/19 09:18:34;;;;;;;;;;;25.10;39.30;;;;;;8296693;28;20294;-46
2022/05/19 09:22:35;;;;;;;;;;;25.10;39.30;;;;;;8297343;28;20296;-48
2022/05/19 09:26:46;;;;;;;;;;;25.20;39.90;;;;;;8299634;28;19918;-48
2022/05/19 09:30:48;;;;;;;;;;;25.20;39.40;;;;;;8302891;28;19924;-45
2022/05/19 09:34:51;;;;;;;;;;;25.20;39.30;;;;;;8303496;28;20363;-51
2022/05/19 09:38:56;;;;;;;;;;;25.20;39.30;;;;;;8302549;28;19925;-50
2022/05/19 09:43:03;;;;;;;;;;;25.20;39.30;;;;;;8303811;28;19920;-47
2022/05/19 09:47:19;;;;;;;;;;;25.20;39.30;;;;;;8302938;28;19971;-50
2022/05/19 09:51:23;;;;;;;;;;;25.20;39.30;;;;;;8302428;28;20457;-48
2022/05/19 09:55:24;;;;;;;;;;;25.30;39.30;;;;;;8302511;28;19917;-52
2022/05/19 09:59:32;;;;;;;;;;;25.30;39.30;;;;;;8302221;28;19926;-51
2022/05/19 10:03:33;;;;;;;;;;;25.30;39.30;;;;;;8302123;28;19922;-49
2022/05/19 10:07:37;;;;;;;;;;;25.30;39.30;;;;;;8302590;28;20004;-48
2022/05/19 10:11:45;;;;;;;;;;;25.40;39.30;;;;;;8279612;28;19992;-47
2022/05/19 10:16:07;;;;;;;;;;;25.40;39.30;;;;;;8276682;28;19961;-48
2022/05/19 10:20:21;;;;;;;;;;;25.40;39.30;;;;;;8301992;28;19921;-47
2022/05/19 10:24:40;;;;;;;;;;;25.40;39.30;;;;;;8301281;28;19917;-49
2022/05/19 10:33:13;;;;;;;;;;;25.40;39.30;;;;;;8303302;28;19980;-48
2022/05/19 10:37:24;;;;;;;;;;;25.50;39.30;;;;;;8301106;28;19997;-50
2022/05/19 10:41:35;;;;;;;;;;;25.50;39.30;;;;;;8301217;28;20040;-48
2022/05/19 10:45:39;;;;;;;;;;;25.60;39.30;;;;;;8300669;28;19922;-47
2022/05/19 10:49:52;;;;;;;;;;;25.50;39.20;;;;;;8301107;28;19913;-46
2022/05/19 10:54:05;;;;;;;;;;;25.60;39.20;;;;;;8300431;28;19963;-49
2022/05/19 10:58:12;;;;;;;;;;;25.60;39.20;;;;;;8300676;28;19922;-52
2022/05/19 11:02:16;;;;;;;;;;;25.60;39.20;;;;;;8300421;28;19968;-53
2022/05/19 11:06:31;;;;;;;;;;;25.70;39.20;;;;;;8299948;28;20333;-50
2022/05/19 11:10:51;;;;;;;;;;;25.70;39.20;;;;;;8300315;28;19924;-51
2022/05/19 11:14:54;;;;;;;;;;;25.70;39.10;;;;;;8299772;28;20378;-52
2022/05/19 11:19:02;;;;;;;;;;;25.70;39.10;;;;;;8300091;28;19921;-53
2022/05/19 11:23:09;;;;;;;;;;;25.70;39.10;;;;;;8300163;28;20298;-53
2022/05/19 11:27:18;;;;;;;;;;;25.80;39.10;;;;;;8299312;28;19929;-52
2022/05/19 11:31:25;;;;;;;;;;;25.80;39.10;;;;;;8299741;28;20323;-48
2022/05/19 11:35:37;;;;;;;;;;;25.80;39.10;;;;;;8299588;28;19921;-48
2022/05/19 11:39:56;;;;;;;;;;;25.80;39.10;;;;;;8298932;28;19933;-48
2022/05/19 11:43:59;;;;;;;;;;;25.90;39.10;;;;;;8299688;28;20012;-51
2022/05/19 11:57:04;;;;;;;;;;;25.90;39.00;;;;;;8300790;28;20405;-50
2022/05/19 12:01:07;;;;;;;;;;;25.90;39.00;;;;;;8299200;28;19917;-51
2022/05/19 12:05:13;;;;;;;;;;;25.90;39.00;;;;;;8297594;28;19928;-48
2022/05/19 12:09:21;;;;;;;;;;;26.00;39.00;;;;;;8298517;28;20298;-52
2022/05/19 12:13:32;;;;;;;;;;;26.00;39.00;;;;;;8298803;28;20059;-52
2022/05/19 12:17:39;;;;;;;;;;;26.00;39.00;;;;;;8301802;28;19925;-47
2022/05/19 12:21:51;;;;;;;;;;;26.10;39.00;;;;;;8297797;28;19918;-52
2022/05/19 12:25:58;;;;;;;;;;;26.10;39.00;;;;;;8298338;28;20299;-50
2022/05/19 12:29:59;;;;;;;;;;;26.10;39.00;;;;;;8297743;28;19921;-47
2022/05/19 12:34:01;;;;;;;;;;;26.10;39.00;;;;;;8298198;28;20340;-50
2022/05/19 12:38:03;;;;;;;;;;;26.10;39.00;;;;;;8297910;28;20333;-50
2022/05/19 12:42:12;;;;;;;;;;;26.10;38.90;;;;;;8297154;28;20012;-51
2022/05/19 12:46:32;;;;;;;;;;;26.20;38.90;;;;;;8297998;28;19979;-51
2022/05/19 12:50:42;;;;;;;;;;;26.20;38.90;;;;;;8297568;28;19980;-51
2022/05/19 12:55:11;;;;;;;;;;;26.20;38.90;;;;;;8297172;28;19913;-50
2022/05/19 12:59:30;;;;;;;;;;;26.20;38.70;;;;;;8297628;28;19933;-50
2022/05/19 13:03:31;;;;;;;;;;;26.30;38.60;;;;;;8303679;28;20356;-50
2022/05/19 13:07:39;;;;;;;;;;;26.30;38.70;;;;;;8303385;28;19960;-48
2022/05/19 13:11:44;;;;;;;;;;;26.30;38.60;;;;;;8304127;28;19920;-52
2022/05/19 13:16:05;;;;;;;;;;;26.30;38.60;;;;;;8303551;28;19917;-51
2022/05/19 13:20:12;;;;;;;;;;;26.30;38.60;;;;;;8299673;28;19930;-48
2022/05/19 13:24:15;;;;;;;;;;;26.40;38.50;;;;;;8303461;28;20272;-50
2022/05/19 13:32:40;;;;;;;;;;;26.40;38.70;;;;;;8303189;28;19924;-49
2022/05/19 13:36:41;;;;;;;;;;;26.40;38.70;;;;;;8302643;28;19926;-49
2022/05/19 13:40:43;;;;;;;;;;;26.40;38.70;;;;;;8303177;28;20287;-52
2022/05/19 13:44:47;;;;;;;;;;;26.40;38.80;;;;;;8303061;28;19917;-52
2022/05/19 13:48:52;;;;;;;;;;;26.40;38.90;;;;;;8301893;28;19939;-50
2022/05/19 13:52:55;;;;;;;;;;;26.40;38.80;;;;;;8302636;28;19948;-46
2022/05/19 13:57:00;;;;;;;;;;;26.40;38.80;;;;;;8301961;28;19933;-52
2022/05/19 14:01:01;;;;;;;;;;;26.40;38.80;;;;;;8302601;28;20032;-49
2022/05/19 14:05:07;;;;;;;;;;;26.40;38.80;;;;;;8302192;28;19925;-47
2022/05/19 14:09:19;;;;;;;;;;;26.40;38.80;;;;;;8301851;28;19921;-51
2022/05/19 14:13:22;;;;;;;;;;;26.30;38.80;;;;;;8301626;28;19921;-52
2022/05/19 14:17:24;;;;;;;;;;;26.30;38.80;;;;;;8302118;28;19925;-50
2022/05/19 14:21:25;;;;;;;;;;;26.30;38.80;;;;;;8301464;28;19972;-49
2022/05/19 14:25:27;;;;;;;;;;;26.40;39.00;;;;;;8302274;28;19913;-47
2022/05/19 14:29:37;;;;;;;;;;;26.40;39.00;;;;;;8301830;28;20387;-47
2022/05/19 14:33:58;;;;;;;;;;;26.40;39.00;;;;;;8301189;28;19945;-49
2022/05/19 14:38:03;;;;;;;;;;;26.40;39.00;;;;;;8301045;28;19933;-47
2022/05/19 14:46:24;;;;;;;;;;;26.40;39.10;;;;;;8301467;28;19920;-48
2022/05/19 14:50:28;;;;;;;;;;;26.40;39.10;;;;;;8301180;28;19924;-48
2022/05/19 14:54:30;;;;;;;;;;;26.40;39.20;;;;;;8300929;28;19940;-48
2022/05/19 14:58:39;;;;;;;;;;;26.40;39.10;;;;;;8300671;28;19971;-46
2022/05/19 15:02:39;;;;;;;;;;;26.40;39.20;;;;;;8300684;28;19952;-46
2022/05/19 15:06:40;;;;;;;;;;;26.40;39.00;;;;;;8300012;28;19945;-47
2022/05/19 15:10:42;;;;;;;;;;;26.40;39.00;;;;;;8300636;28;20286;-46
2022/05/19 15:14:42;;;;;;;;;;;26.40;39.00;;;;;;8300546;28;19913;-48
2022/05/19 15:18:43;;;;;;;;;;;26.50;39.30;;;;;;8299684;28;20397;-49
2022/05/19 15:22:44;;;;;;;;;;;26.50;39.10;;;;;;8299384;28;19967;-50
2022/05/19 15:26:44;;;;;;;;;;;26.50;39.10;;;;;;8299684;28;19919;-47
2022/05/19 15:30:45;;;;;;;;;;;26.50;39.20;;;;;;8299390;28;20363;-48
2022/05/19 15:34:45;;;;;;;;;;;26.50;39.30;;;;;;8299775;28;19913;-48
2022/05/19 15:38:46;;;;;;;;;;;26.50;39.20;;;;;;8299409;28;19995;-49
2022/05/19 15:42:46;;;;;;;;;;;26.50;39.20;;;;;;8298810;28;19949;-50
2022/05/19 15:46:47;;;;;;;;;;;26.50;39.10;;;;;;8299124;28;19964;-51
2022/05/19 15:50:48;;;;;;;;;;;26.50;39.00;;;;;;8299288;28;19929;-47
2022/05/19 15:54:49;;;;;;;;;;;26.50;39.00;;;;;;8298769;28;19917;-46
2022/05/19 15:58:49;;;;;;;;;;;26.60;39.00;;;;;;8298665;28;19929;-48
2022/05/19 16:02:52;;;;;;;;;;;26.60;39.00;;;;;;8298113;28;20012;-47
2022/05/19 16:06:52;;;;;;;;;;;26.60;39.00;;;;;;8298059;28;20404;-49
2022/05/19 16:10:53;;;;;;;;;;;26.50;39.00;;;;;;8298562;28;19914;-47
2022/05/19 16:14:54;;;;;;;;;;;26.60;39.20;;;;;;8298335;28;19992;-49
2022/05/19 16:18:54;;;;;;;;;;;26.60;39.10;;;;;;8298211;28;20438;-53
2022/05/19 16:22:56;;;;;;;;;;;26.60;39.10;;;;;;8298212;28;20384;-50
2022/05/19 16:26:58;;;;;;;;;;;26.50;39.00;;;;;;8297767;28;19918;-51
2022/05/19 16:31:00;;;;;;;;;;;26.60;39.10;;;;;;8298767;28;20426;-50
2022/05/19 16:35:00;;;;;;;;;;;26.60;39.10;;;;;;8297843;28;19976;-49
2022/05/19 16:39:01;;;;;;;;;;;26.60;39.00;;;;;;8297325;28;19925;-48
2022/05/19 16:43:04;;;;;;;;;;;26.60;39.00;;;;;;8296810;28;19921;-48
2022/05/19 16:47:05;;;;;;;;;;;26.60;39.00;;;;;;8297698;28;19924;-47
2022/05/19 16:51:05;;;;;;;;;;;26.60;38.90;;;;;;8297650;28;19936;-49
2022/05/19 16:59:28;;;;;;;;;;;26.60;39.00;;;;;;8296153;28;19932;-51
2022/05/19 17:03:29;;;;;;;;;;;26.60;39.00;;;;;;8297089;28;20302;-48
2022/05/19 17:07:30;;;;;;;;;;;26.60;38.90;;;;;;8296581;28;19913;-47
2022/05/19 17:11:30;;;;;;;;;;;26.60;39.00;;;;;;8289944;28;19918;-45
2022/05/19 17:15:32;;;;;;;;;;;26.60;39.60;;;;;;8293469;28;21899;-50
2022/05/19 17:19:32;;;;;;;;;;;26.60;40.50;;;;;;8293300;28;19980;-47
2022/05/19 17:23:33;;;;;;;;;;;26.70;40.20;;;;;;8269671;28;19914;-47
2022/05/19 17:27:34;;;;;;;;;;;26.70;40.00;;;;;;8305890;28;19940;-51
2022/05/19 17:31:35;;;;;;;;;;;26.70;39.80;;;;;;8262097;28;20009;-47
2022/05/19 17:35:37;;;;;;;;;;;26.70;39.70;;;;;;8286304;28;19925;-47
2022/05/19 17:39:38;;;;;;;;;;;26.70;39.70;;;;;;8296439;28;19926;-51
2022/05/19 17:43:42;;;;;;;;;;;26.60;39.70;;;;;;8296786;28;19929;-46
2022/05/19 17:47:42;;;;;;;;;;;26.60;39.60;;;;;;8285964;28;20218;-48
2022/05/19 17:51:43;;;;;;;;;;;26.60;39.60;;;;;;8300961;28;19980;-50
2022/05/19 17:55:44;;;;;;;;;;;26.60;39.70;;;;;;8302807;28;20287;-47
2022/05/19 17:59:45;;;;;;;;;;;26.60;39.70;;;;;;8302239;28;19925;-50
2022/05/19 18:03:45;;;;;;;;;;;26.60;39.60;;;;;;8302507;28;19921;-48
2022/05/19 18:07:46;;;;;;;;;;;26.60;39.60;;;;;;8302371;28;19971;-48
2022/05/19 18:11:46;;;;;;;;;;;26.60;39.60;;;;;;8302013;28;19919;-48
2022/05/19 18:20:06;;;;;;;;;;;26.60;39.70;;;;;;8297268;28;19991;-46
2022/05/19 18:24:06;;;;;;;;;;;26.60;39.70;;;;;;8302033;28;19917;-48
2022/05/19 18:28:07;;;;;;;;;;;26.60;40.10;;;;;;8301715;28;19917;-47
2022/05/19 18:32:07;;;;;;;;;;;26.60;39.60;;;;;;8301653;28;20339;-48
2022/05/19 18:36:09;;;;;;;;;;;26.60;39.60;;;;;;8301112;28;19918;-48
2022/05/19 18:44:49;;;;;;;;;;;26.50;39.60;;;;;;8313736;28;20063;-47
2022/05/19 18:48:49;;;;;;;;;;;26.50;40.10;;;;;;8263357;28;19968;-49
2022/05/19 18:52:50;;;;;;;;;;;26.50;40.10;;;;;;8266223;28;20367;-46
2022/05/19 18:56:51;;;;;;;;;;;26.60;40.10;;;;;;8261384;28;20310;-45
2022/05/19 19:00:52;;;;;;;;;;;26.50;39.80;;;;;;8267753;28;19918;-48
2022/05/19 19:04:53;;;;;;;;;;;26.50;39.70;;;;;;8267554;28;19964;-46
2022/05/19 19:08:53;;;;;;;;;;;26.50;39.60;;;;;;8267650;28;20074;-46
2022/05/19 19:12:54;;;;;;;;;;;26.50;39.60;;;;;;8268355;28;19988;-47
2022/05/19 19:16:54;;;;;;;;;;;26.50;39.50;;;;;;8267951;28;19980;-48
2022/05/19 19:20:55;;;;;;;;;;;26.50;39.50;;;;;;8267416;28;19918;-48
2022/05/19 19:24:56;;;;;;;;;;;26.50;39.50;;;;;;8267527;28;20012;-50
2022/05/19 19:28:56;;;;;;;;;;;26.50;39.50;;;;;;8267393;28;19914;-50
2022/05/19 19:32:56;;;;;;;;;;;26.50;39.50;;;;;;8266947;28;19956;-49
2022/05/19 19:36:57;;;;;;;;;;;26.50;39.50;;;;;;8267593;28;20391;-52
2022/05/19 19:40:58;;;;;;;;;;;26.50;39.50;;;;;;8267279;28;19964;-48
2022/05/19 19:44:58;;;;;;;;;;;26.50;39.50;;;;;;8266576;28;19918;-49
2022/05/19 19:48:59;;;;;;;;;;;26.40;39.40;;;;;;8266712;28;20008;-54
2022/05/19 19:52:59;;;;;;;;;;;26.50;39.50;;;;;;8266917;28;19918;-49
2022/05/19 19:57:02;;;;;;;;;;;26.50;39.50;;;;;;8266558;28;19922;-49
